Time;durP1;ratioP1;P1;durP2;ratioP2;P2;SDS_P1;SDS_P2;PMS_P1;PMS_P2;Temp;Humidity;BMP_temperature;BMP_pressure;BME280_temperature;BME280_humidity;BME280_pressure;Samples;Min_cycle;Max_cycle;Signal;HPM_P1;HPM_P2
2023/08/03 00:00:15;;;;;;;3.10;1.30;;;;;;;;;;4929300;28;100284;-75
2023/08/03 00:02:42;;;;;;;2.22;0.90;;;;;;;;;;4929633;28;100215;-75
2023/08/03 00:05:08;;;;;;;1.48;1.33;;;;;;;;;;4930030;28;99387;-75
2023/08/03 00:07:35;;;;;;;4.28;1.35;;;;;;;;;;4928308;28;99335;-75
2023/08/03 00:10:02;;;;;;;8.52;1.55;;;;;;;;;;4930148;28;99862;-75
2023/08/03 00:12:28;;;;;;;3.97;1.42;;;;;;;;;;4933051;28;100677;-75
2023/08/03 00:14:55;;;;;;;3.65;1.70;;;;;;;;;;4929418;28;98367;-75
2023/08/03 00:17:22;;;;;;;4.15;1.30;;;;;;;;;;4929677;28;99418;-75
2023/08/03 00:19:48;;;;;;;2.15;1.25;;;;;;;;;;4930256;28;100127;-75
2023/08/03 00:22:15;;;;;;;5.55;1.67;;;;;;;;;;4928711;28;99063;-74
2023/08/03 00:24:41;;;;;;;8.77;1.75;;;;;;;;;;4930032;28;99339;-75
2023/08/03 00:27:07;;;;;;;4.80;1.80;;;;;;;;;;4929890;28;100139;-75
2023/08/03 00:29:34;;;;;;;7.35;2.40;;;;;;;;;;4927719;28;99791;-75
2023/08/03 00:32:01;;;;;;;4.72;2.85;;;;;;;;;;4928629;28;102557;-75
2023/08/03 00:34:29;;;;;;;6.10;2.45;;;;;;;;;;4932152;28;98496;-75
2023/08/03 00:36:55;;;;;;;9.50;2.67;;;;;;;;;;4928248;28;99205;-75
2023/08/03 00:39:23;;;;;;;4.13;2.45;;;;;;;;;;4929449;28;99030;-74
2023/08/03 00:41:50;;;;;;;5.88;2.28;;;;;;;;;;4928887;28;98851;-75
2023/08/03 00:44:17;;;;;;;5.70;2.05;;;;;;;;;;4929831;28;99441;-75
2023/08/03 00:46:44;;;;;;;8.18;1.85;;;;;;;;;;4929830;28;98933;-75
2023/08/03 00:49:10;;;;;;;7.57;2.30;;;;;;;;;;4928281;28;98840;-75
2023/08/03 00:51:37;;;;;;;6.47;2.65;;;;;;;;;;4927877;28;100962;-75
2023/08/03 00:54:07;;;;;;;4.43;2.03;;;;;;;;;;4931721;28;101706;-73
2023/08/03 00:56:34;;;;;;;10.48;2.80;;;;;;;;;;4928902;28;99297;-73
2023/08/03 00:59:02;;;;;;;8.77;2.17;;;;;;;;;;4930122;28;98797;-74
2023/08/03 01:01:28;;;;;;;7.32;1.67;;;;;;;;;;4929166;28;99245;-74
2023/08/03 01:03:55;;;;;;;6.53;2.00;;;;;;;;;;4928649;28;100188;-73
2023/08/03 01:06:22;;;;;;;5.78;1.50;;;;;;;;;;4929272;28;99046;-75
2023/08/03 01:08:49;;;;;;;2.47;1.45;;;;;;;;;;4929889;28;98964;-74
2023/08/03 01:11:15;;;;;;;11.25;1.85;;;;;;;;;;4927740;28;99892;-73
2023/08/03 01:13:41;;;;;;;8.70;1.95;;;;;;;;;;4929532;28;98732;-74
2023/08/03 01:16:11;;;;;;;3.90;1.80;;;;;;;;;;4932289;28;99178;-73
2023/08/03 01:18:42;;;;;;;7.47;1.98;;;;;;;;;;4928756;28;99262;-73
2023/08/03 01:21:09;;;;;;;7.50;1.77;;;;;;;;;;4929001;28;98631;-74
2023/08/03 01:23:35;;;;;;;6.53;1.88;;;;;;;;;;4929417;28;99207;-74
2023/08/03 01:26:01;;;;;;;5.55;1.88;;;;;;;;;;4928616;28;99684;-74
2023/08/03 01:28:28;;;;;;;9.43;2.38;;;;;;;;;;4929014;28;98952;-74
2023/08/03 01:30:55;;;;;;;6.05;1.70;;;;;;;;;;4928213;28;100451;-74
2023/08/03 01:33:22;;;;;;;5.28;2.22;;;;;;;;;;4926725;28;101622;-74
2023/08/03 01:35:49;;;;;;;11.77;2.33;;;;;;;;;;4928927;28;98492;-74
2023/08/03 01:38:17;;;;;;;6.65;2.72;;;;;;;;;;4930881;28;99575;-73
2023/08/03 01:40:43;;;;;;;5.65;1.85;;;;;;;;;;4928620;28;99216;-73
2023/08/03 01:43:12;;;;;;;6.47;1.95;;;;;;;;;;4928519;28;100262;-73
2023/08/03 01:45:38;;;;;;;9.20;1.88;;;;;;;;;;4922625;28;100081;-74
2023/08/03 01:48:04;;;;;;;6.82;2.03;;;;;;;;;;4909597;28;98775;-74
2023/08/03 01:50:33;;;;;;;7.93;1.60;;;;;;;;;;4907613;28;99460;-74
2023/08/03 01:53:00;;;;;;;5.28;1.83;;;;;;;;;;4908725;28;99906;-74
2023/08/03 01:55:26;;;;;;;3.83;2.00;;;;;;;;;;4908154;28;101688;-74
2023/08/03 01:57:53;;;;;;;10.32;2.05;;;;;;;;;;4910345;28;98569;-74
2023/08/03 02:00:19;;;;;;;8.80;1.98;;;;;;;;;;4917763;28;99170;-74
2023/08/03 02:02:46;;;;;;;4.43;2.10;;;;;;;;;;4927137;28;101605;-74
2023/08/03 02:05:16;;;;;;;11.20;2.08;;;;;;;;;;4925609;28;101356;-74
2023/08/03 02:07:44;;;;;;;10.20;2.53;;;;;;;;;;4926241;28;100979;-74
2023/08/03 02:10:11;;;;;;;16.20;2.90;;;;;;;;;;4926901;28;100648;-74
2023/08/03 02:12:38;;;;;;;15.32;2.85;;;;;;;;;;4928182;28;98707;-74
2023/08/03 02:15:06;;;;;;;9.48;2.63;;;;;;;;;;4927837;28;99051;-74
2023/08/03 02:17:33;;;;;;;9.23;2.00;;;;;;;;;;4926691;28;100276;-74
2023/08/03 02:19:59;;;;;;;3.97;1.98;;;;;;;;;;4926729;28;101314;-73
2023/08/03 02:22:26;;;;;;;6.90;2.40;;;;;;;;;;4929735;28;101279;-74
2023/08/03 02:24:52;;;;;;;7.90;2.53;;;;;;;;;;4928569;28;99446;-75
2023/08/03 02:27:20;;;;;;;10.75;2.47;;;;;;;;;;4927224;28;99089;-74
2023/08/03 02:29:48;;;;;;;8.73;2.42;;;;;;;;;;4926257;28;102265;-73
2023/08/03 02:32:14;;;;;;;7.47;2.53;;;;;;;;;;4926270;28;99937;-73
2023/08/03 02:34:42;;;;;;;13.18;3.45;;;;;;;;;;4925769;28;101308;-73
2023/08/03 02:37:08;;;;;;;6.55;2.47;;;;;;;;;;4928095;28;99123;-74
2023/08/03 02:39:36;;;;;;;10.05;3.38;;;;;;;;;;4926327;28;101089;-74
2023/08/03 02:42:04;;;;;;;7.95;3.00;;;;;;;;;;4928576;28;101914;-74
2023/08/03 02:44:35;;;;;;;9.60;3.10;;;;;;;;;;4926379;28;100205;-73
2023/08/03 02:47:02;;;;;;;8.98;2.65;;;;;;;;;;4927076;28;100090;-74
2023/08/03 02:49:29;;;;;;;8.23;2.75;;;;;;;;;;4924950;28;101960;-74
2023/08/03 02:51:59;;;;;;;9.23;3.47;;;;;;;;;;4926106;28;101820;-74
2023/08/03 02:54:37;;;;;;;10.05;2.70;;;;;;;;;;4926463;28;101105;-74
2023/08/03 02:57:04;;;;;;;5.47;2.25;;;;;;;;;;4927640;28;99105;-73
2023/08/03 02:59:31;;;;;;;8.02;3.28;;;;;;;;;;4926310;28;98932;-74
2023/08/03 03:01:58;;;;;;;13.90;3.13;;;;;;;;;;4928217;28;98947;-73
2023/08/03 03:04:30;;;;;;;11.05;3.00;;;;;;;;;;4928631;28;101868;-75
2023/08/03 03:06:57;;;;;;;9.88;2.97;;;;;;;;;;4926123;28;101057;-73
2023/08/03 03:09:24;;;;;;;14.35;2.72;;;;;;;;;;4925053;28;101774;-74
2023/08/03 03:11:55;;;;;;;9.70;3.08;;;;;;;;;;4926806;28;100854;-74
2023/08/03 03:14:27;;;;;;;14.00;3.13;;;;;;;;;;4910647;28;98585;-74
2023/08/03 03:16:54;;;;;;;8.18;3.03;;;;;;;;;;4926841;28;99132;-74
2023/08/03 03:19:21;;;;;;;12.15;3.47;;;;;;;;;;4930440;28;99373;-74
2023/08/03 03:21:50;;;;;;;10.10;2.85;;;;;;;;;;4929326;28;100782;-74
2023/08/03 03:24:16;;;;;;;9.00;3.72;;;;;;;;;;4930347;28;99261;-74
2023/08/03 03:26:43;;;;;;;12.05;3.83;;;;;;;;;;4934109;28;98903;-74
2023/08/03 03:29:09;;;;;;;12.52;2.45;;;;;;;;;;4929429;28;102367;-74
2023/08/03 03:31:36;;;;;;;7.30;2.25;;;;;;;;;;4911089;28;100450;-75
2023/08/03 03:34:03;;;;;;;8.43;2.58;;;;;;;;;;4909546;28;100913;-74
2023/08/03 03:36:31;;;;;;;8.13;2.38;;;;;;;;;;4909966;28;101412;-75
2023/08/03 03:38:57;;;;;;;12.63;3.13;;;;;;;;;;4915933;28;98807;-75
2023/08/03 03:41:24;;;;;;;8.40;2.75;;;;;;;;;;4928641;28;99311;-73
2023/08/03 03:43:50;;;;;;;5.60;2.42;;;;;;;;;;4930204;28;99857;-74
2023/08/03 03:46:16;;;;;;;8.60;2.53;;;;;;;;;;4928340;28;101646;-74
2023/08/03 03:48:43;;;;;;;3.28;2.05;;;;;;;;;;4932141;28;99850;-73
2023/08/03 03:51:10;;;;;;;4.70;2.20;;;;;;;;;;4928896;28;100956;-74
2023/08/03 03:53:39;;;;;;;11.57;2.60;;;;;;;;;;4928132;28;101727;-75
2023/08/03 03:56:11;;;;;;;6.63;2.38;;;;;;;;;;4929839;28;100574;-76
2023/08/03 03:58:38;;;;;;;6.60;2.00;;;;;;;;;;4928527;28;101448;-73
2023/08/03 04:01:04;;;;;;;6.40;2.60;;;;;;;;;;4931072;28;99016;-75
2023/08/03 04:03:31;;;;;;;6.60;2.00;;;;;;;;;;4929088;28;100368;-75
2023/08/03 04:06:04;;;;;;;2.17;1.88;;;;;;;;;;4927990;28;101843;-74
2023/08/03 04:08:30;;;;;;;5.65;2.33;;;;;;;;;;4928061;28;101957;-74
2023/08/03 04:10:57;;;;;;;4.90;2.15;;;;;;;;;;4933579;28;99225;-75
2023/08/03 04:13:23;;;;;;;11.75;2.22;;;;;;;;;;4929222;28;98984;-74
2023/08/03 04:15:49;;;;;;;5.63;2.08;;;;;;;;;;4927774;28;100107;-73
2023/08/03 04:18:16;;;;;;;5.93;2.00;;;;;;;;;;4925061;28;102004;-76
2023/08/03 04:20:43;;;;;;;5.35;2.08;;;;;;;;;;4909911;28;99024;-76
2023/08/03 04:23:09;;;;;;;4.95;2.22;;;;;;;;;;4909468;28;101964;-74
2023/08/03 04:25:36;;;;;;;4.30;2.25;;;;;;;;;;4911595;28;98769;-73
2023/08/03 04:28:11;;;;;;;8.43;2.58;;;;;;;;;;4908460;28;100658;-76
2023/08/03 04:30:38;;;;;;;3.55;1.90;;;;;;;;;;4909501;28;101775;-74
2023/08/03 04:33:04;;;;;;;6.50;2.25;;;;;;;;;;4912156;28;101793;-75
2023/08/03 04:35:34;;;;;;;2.92;1.80;;;;;;;;;;4925707;28;100368;-74
2023/08/03 04:38:08;;;;;;;2.55;1.75;;;;;;;;;;4927462;28;101514;-75
2023/08/03 04:40:38;;;;;;;7.55;1.77;;;;;;;;;;4928141;28;98947;-73
2023/08/03 04:43:06;;;;;;;4.60;1.90;;;;;;;;;;4927487;28;101907;-74
2023/08/03 04:45:32;;;;;;;3.45;1.83;;;;;;;;;;4929627;28;98786;-73
2023/08/03 04:47:59;;;;;;;3.10;1.52;;;;;;;;;;4927428;28;100844;-75
2023/08/03 04:50:26;;;;;;;4.07;1.88;;;;;;;;;;4928174;28;101335;-73
2023/08/03 04:52:53;;;;;;;3.88;1.50;;;;;;;;;;4932583;28;100141;-73
2023/08/03 04:55:21;;;;;;;5.07;1.80;;;;;;;;;;4927456;28;101118;-75
2023/08/03 04:57:47;;;;;;;5.18;1.63;;;;;;;;;;4927501;28;100912;-76
2023/08/03 05:00:16;;;;;;;2.95;1.73;;;;;;;;;;4927959;28;101479;-73
2023/08/03 05:02:43;;;;;;;5.35;1.95;;;;;;;;;;4928814;28;99246;-74
2023/08/03 05:05:10;;;;;;;4.93;1.50;;;;;;;;;;4928965;28;98954;-73
2023/08/03 05:07:36;;;;;;;4.43;1.48;;;;;;;;;;4929019;28;99020;-74
2023/08/03 05:10:03;;;;;;;8.45;1.88;;;;;;;;;;4926793;28;99601;-74
2023/08/03 05:12:29;;;;;;;10.95;2.13;;;;;;;;;;4927247;28;98935;-73
2023/08/03 05:14:56;;;;;;;2.95;1.70;;;;;;;;;;4930648;28;99262;-74
2023/08/03 05:17:22;;;;;;;6.95;1.95;;;;;;;;;;4925128;28;100219;-73
2023/08/03 05:19:50;;;;;;;5.25;1.83;;;;;;;;;;4920168;28;101573;-73
2023/08/03 05:22:16;;;;;;;5.28;2.00;;;;;;;;;;4924009;28;101098;-73
2023/08/03 05:24:42;;;;;;;2.83;2.03;;;;;;;;;;4928002;28;99860;-74
2023/08/03 05:27:12;;;;;;;7.93;1.92;;;;;;;;;;4929431;28;99813;-73
2023/08/03 05:29:41;;;;;;;10.45;1.83;;;;;;;;;;4928005;28;100192;-73
2023/08/03 05:32:08;;;;;;;3.88;1.52;;;;;;;;;;4927813;28;99119;-73
2023/08/03 05:34:34;;;;;;;3.47;2.20;;;;;;;;;;4926810;28;98675;-73
2023/08/03 05:37:01;;;;;;;5.30;1.40;;;;;;;;;;4928602;28;101060;-73
2023/08/03 05:39:27;;;;;;;6.55;2.42;;;;;;;;;;4926900;28;99788;-73
2023/08/03 05:41:54;;;;;;;9.27;3.15;;;;;;;;;;4927887;28;100201;-73
2023/08/03 05:44:20;;;;;;;7.75;2.55;;;;;;;;;;4926980;28;100144;-74
2023/08/03 05:46:47;;;;;;;10.95;2.42;;;;;;;;;;4925918;28;100028;-74
2023/08/03 05:49:13;;;;;;;15.90;2.42;;;;;;;;;;4926605;28;99680;-74
2023/08/03 05:51:40;;;;;;;10.05;2.40;;;;;;;;;;4926857;28;99176;-74
2023/08/03 05:54:12;;;;;;;9.05;2.00;;;;;;;;;;4927939;28;99045;-73
2023/08/03 05:56:39;;;;;;;12.70;2.78;;;;;;;;;;4927708;28;100157;-74
2023/08/03 05:59:11;;;;;;;14.50;2.17;;;;;;;;;;4929647;28;99371;-74
2023/08/03 06:01:38;;;;;;;10.48;2.42;;;;;;;;;;4923297;28;99821;-73
2023/08/03 06:04:09;;;;;;;5.20;1.92;;;;;;;;;;4926982;28;99999;-73
2023/08/03 06:06:36;;;;;;;7.40;2.28;;;;;;;;;;4926382;28;99321;-73
2023/08/03 06:09:03;;;;;;;4.78;1.52;;;;;;;;;;4925658;28;99998;-73
2023/08/03 06:11:30;;;;;;;8.95;2.05;;;;;;;;;;4927394;28;100110;-73
2023/08/03 06:13:57;;;;;;;12.50;2.63;;;;;;;;;;4926013;28;100885;-73
2023/08/03 06:16:24;;;;;;;7.53;1.85;;;;;;;;;;4925686;28;100219;-73
2023/08/03 06:18:55;;;;;;;7.82;1.95;;;;;;;;;;4926693;28;99970;-74
2023/08/03 06:21:25;;;;;;;8.98;2.13;;;;;;;;;;4929510;28;100600;-74
2023/08/03 06:23:54;;;;;;;11.40;2.60;;;;;;;;;;4924441;28;99993;-73
2023/08/03 06:26:21;;;;;;;14.85;2.85;;;;;;;;;;4925386;28;100628;-74
2023/08/03 06:28:53;;;;;;;4.80;1.88;;;;;;;;;;4927172;28;99013;-74
2023/08/03 06:31:23;;;;;;;7.10;2.33;;;;;;;;;;4926652;28;98845;-74
2023/08/03 06:33:49;;;;;;;11.23;2.10;;;;;;;;;;4926434;28;99870;-74
2023/08/03 06:36:17;;;;;;;7.05;2.10;;;;;;;;;;4924637;28;100011;-74
2023/08/03 06:38:44;;;;;;;11.75;1.98;;;;;;;;;;4926435;28;99145;-76
2023/08/03 06:41:10;;;;;;;13.13;2.47;;;;;;;;;;4926950;28;99637;-74
2023/08/03 06:43:37;;;;;;;15.43;2.00;;;;;;;;;;4930985;28;99342;-76
2023/08/03 06:46:04;;;;;;;8.57;2.58;;;;;;;;;;4922764;28;100207;-74
2023/08/03 06:48:34;;;;;;;10.07;2.40;;;;;;;;;;4923913;28;99313;-74
2023/08/03 06:51:04;;;;;;;11.65;2.78;;;;;;;;;;4923204;28;99226;-74
2023/08/03 06:53:31;;;;;;;4.53;1.77;;;;;;;;;;4927754;28;99935;-75
2023/08/03 06:55:57;;;;;;;9.23;1.95;;;;;;;;;;4924014;28;100885;-74
2023/08/03 06:58:24;;;;;;;4.38;2.35;;;;;;;;;;4927822;28;100251;-75
2023/08/03 07:00:50;;;;;;;4.28;1.80;;;;;;;;;;4925588;28;99456;-75
2023/08/03 07:03:17;;;;;;;7.18;2.25;;;;;;;;;;4927648;28;99210;-74
2023/08/03 07:05:44;;;;;;;8.63;2.05;;;;;;;;;;4925443;28;100374;-75
2023/08/03 07:08:11;;;;;;;11.88;2.10;;;;;;;;;;4926742;28;99382;-74
2023/08/03 07:10:37;;;;;;;12.38;2.53;;;;;;;;;;4924810;28;99983;-75
2023/08/03 07:13:04;;;;;;;3.25;1.40;;;;;;;;;;4927460;28;99394;-75
2023/08/03 07:15:33;;;;;;;5.80;1.48;;;;;;;;;;4925325;28;99441;-75
2023/08/03 07:18:01;;;;;;;2.28;1.30;;;;;;;;;;4924176;28;99894;-75
2023/08/03 07:20:27;;;;;;;2.10;0.90;;;;;;;;;;4925682;28;99798;-75
2023/08/03 07:22:54;;;;;;;1.98;1.20;;;;;;;;;;4925130;28;100247;-75
2023/08/03 07:25:20;;;;;;;2.60;1.15;;;;;;;;;;4927998;28;99433;-74
2023/08/03 07:27:46;;;;;;;3.40;1.42;;;;;;;;;;4924575;28;100333;-75
2023/08/03 07:30:13;;;;;;;2.72;0.90;;;;;;;;;;4924258;28;99012;-75
2023/08/03 07:32:39;;;;;;;1.20;1.10;;;;;;;;;;4928308;28;98941;-73
2023/08/03 07:35:06;;;;;;;2.33;0.90;;;;;;;;;;4926285;28;100272;-74
2023/08/03 07:37:32;;;;;;;1.67;1.15;;;;;;;;;;4925110;28;99913;-73
2023/08/03 07:39:59;;;;;;;1.85;0.90;;;;;;;;;;4927225;28;99357;-75
2023/08/03 07:42:25;;;;;;;3.13;0.82;;;;;;;;;;4924821;28;99495;-75
2023/08/03 07:44:52;;;;;;;2.25;0.90;;;;;;;;;;4926381;28;100271;-75
2023/08/03 07:47:19;;;;;;;2.33;1.20;;;;;;;;;;4931224;28;98850;-75
2023/08/03 07:49:45;;;;;;;2.45;1.20;;;;;;;;;;4930962;28;99267;-76
2023/08/03 07:52:12;;;;;;;6.20;1.60;;;;;;;;;;4932704;28;98538;-76
2023/08/03 07:54:38;;;;;;;2.17;1.50;;;;;;;;;;4925378;28;99420;-76
2023/08/03 07:57:05;;;;;;;5.38;1.05;;;;;;;;;;4926282;28;99955;-76
2023/08/03 07:59:32;;;;;;;2.53;1.30;;;;;;;;;;4924760;28;99440;-74
2023/08/03 08:02:00;;;;;;;3.63;1.15;;;;;;;;;;4925753;28;100760;-76
2023/08/03 08:04:27;;;;;;;2.47;1.02;;;;;;;;;;4926074;28;100143;-75
2023/08/03 08:06:53;;;;;;;2.13;1.17;;;;;;;;;;4929970;28;98982;-74
2023/08/03 08:09:20;;;;;;;2.35;1.05;;;;;;;;;;4933011;28;100780;-74
2023/08/03 08:11:47;;;;;;;4.47;1.27;;;;;;;;;;4928405;28;99884;-75
2023/08/03 08:14:14;;;;;;;4.05;1.30;;;;;;;;;;4929303;28;101024;-75
2023/08/03 08:16:40;;;;;;;3.92;1.67;;;;;;;;;;4926606;28;99119;-74
2023/08/03 08:19:07;;;;;;;4.25;1.65;;;;;;;;;;4919167;28;99957;-77
2023/08/03 08:21:33;;;;;;;1.42;1.33;;;;;;;;;;4920880;28;100495;-76
2023/08/03 08:24:00;;;;;;;0.90;0.90;;;;;;;;;;4929682;28;99992;-78
2023/08/03 08:26:28;;;;;;;6.03;2.28;;;;;;;;;;4929327;28;100127;-75
2023/08/03 08:28:58;;;;;;;4.75;1.90;;;;;;;;;;4929506;28;100463;-74
2023/08/03 08:31:31;;;;;;;6.20;2.10;;;;;;;;;;4933402;28;98753;-75
2023/08/03 08:34:17;;;;;;;3.95;2.08;;;;;;;;;;4909810;28;100009;-75
2023/08/03 08:36:44;;;;;;;3.60;1.85;;;;;;;;;;4910512;28;99936;-75
2023/08/03 08:39:11;;;;;;;9.32;2.67;;;;;;;;;;4914723;28;99490;-75
2023/08/03 08:41:39;;;;;;;6.38;2.03;;;;;;;;;;4928669;28;100238;-76
2023/08/03 08:44:05;;;;;;;3.30;1.88;;;;;;;;;;4929473;28;100255;-76
2023/08/03 08:46:32;;;;;;;11.85;1.98;;;;;;;;;;4929213;28;100178;-74
2023/08/03 08:48:58;;;;;;;6.43;2.25;;;;;;;;;;4924513;28;99526;-75
2023/08/03 08:51:26;;;;;;;5.18;2.22;;;;;;;;;;4918053;28;100126;-75
2023/08/03 08:53:55;;;;;;;3.85;2.13;;;;;;;;;;4931349;28;98890;-76
2023/08/03 08:56:25;;;;;;;6.80;1.63;;;;;;;;;;4942316;28;99723;-76
2023/08/03 08:58:55;;;;;;;7.45;1.80;;;;;;;;;;4949338;28;99204;-77
2023/08/03 09:01:24;;;;;;;3.85;1.60;;;;;;;;;;4947599;28;100289;-76
2023/08/03 09:03:51;;;;;;;3.15;1.17;;;;;;;;;;4948362;28;99355;-76
2023/08/03 09:06:21;;;;;;;5.35;1.70;;;;;;;;;;4940841;28;101153;-76
2023/08/03 09:08:51;;;;;;;3.95;1.70;;;;;;;;;;4928244;28;99481;-76
2023/08/03 09:11:18;;;;;;;3.55;1.13;;;;;;;;;;4910761;28;99465;-76
2023/08/03 09:13:46;;;;;;;6.80;1.85;;;;;;;;;;4919253;28;98783;-76
2023/08/03 09:16:23;;;;;;;2.88;1.38;;;;;;;;;;4926744;28;99940;-77
2023/08/03 09:18:49;;;;;;;4.70;1.52;;;;;;;;;;4928720;28;99696;-75
2023/08/03 09:21:16;;;;;;;3.45;1.30;;;;;;;;;;4929121;28;99512;-75
2023/08/03 09:23:46;;;;;;;4.03;1.85;;;;;;;;;;4924137;28;101155;-76
2023/08/03 09:26:23;;;;;;;4.20;1.80;;;;;;;;;;4928737;28;99815;-76
2023/08/03 09:28:52;;;;;;;3.15;1.27;;;;;;;;;;4928867;28;100981;-75
2023/08/03 09:31:20;;;;;;;5.38;1.50;;;;;;;;;;4927892;28;99020;-78
2023/08/03 09:33:56;;;;;;;5.00;1.70;;;;;;;;;;4919931;28;99310;-75
2023/08/03 09:36:23;;;;;;;3.63;2.10;;;;;;;;;;4927844;28;99254;-77
2023/08/03 09:38:52;;;;;;;0.95;0.73;;;;;;;;;;4927123;28;99162;-75
2023/08/03 09:41:35;;;;;;;2.35;1.20;;;;;;;;;;4928059;28;100313;-74
2023/08/03 09:44:06;;;;;;;2.05;1.30;;;;;;;;;;4927903;28;99832;-74
2023/08/03 09:46:32;;;;;;;5.30;1.48;;;;;;;;;;4928652;28;99524;-77
2023/08/03 09:48:59;;;;;;;2.72;1.20;;;;;;;;;;4928176;28;100396;-73
2023/08/03 09:51:30;;;;;;;2.45;1.55;;;;;;;;;;4927711;28;99947;-75
2023/08/03 09:53:59;;;;;;;10.93;1.98;;;;;;;;;;4927690;28;100759;-74
2023/08/03 09:56:31;;;;;;;6.43;1.02;;;;;;;;;;4928202;28;100016;-75
2023/08/03 09:58:59;;;;;;;4.43;1.30;;;;;;;;;;4930772;28;98903;-75
2023/08/03 10:01:27;;;;;;;7.30;1.50;;;;;;;;;;4926321;28;100365;-73
2023/08/03 10:03:59;;;;;;;7.30;1.83;;;;;;;;;;4927265;28;99226;-74
2023/08/03 10:06:25;;;;;;;;;;;;;;;;;;4922422;28;99740;-74
2023/08/03 10:08:55;;;;;;;4.72;1.67;;;;;;;;;;4925516;28;112918;-74
2023/08/03 10:11:22;;;;;;;4.00;1.60;;;;;;;;;;4926665;28;99580;-75
2023/08/03 10:13:50;;;;;;;6.20;1.67;;;;;;;;;;4924610;28;98854;-74
2023/08/03 10:16:17;;;;;;;4.40;1.55;;;;;;;;;;4925834;28;100173;-74
2023/08/03 10:18:45;;;;;;;4.63;1.73;;;;;;;;;;4926890;28;99913;-74
2023/08/03 10:21:24;;;;;;;3.83;2.03;;;;;;;;;;4931177;28;99950;-74
2023/08/03 10:24:09;;;;;;;4.13;1.83;;;;;;;;;;4925860;28;99874;-74
2023/08/03 10:26:38;;;;;;;5.60;1.45;;;;;;;;;;4907546;28;99440;-74
2023/08/03 10:29:05;;;;;;;16.48;1.40;;;;;;;;;;4916627;28;100172;-74
2023/08/03 10:31:31;;;;;;;5.13;1.42;;;;;;;;;;4925430;28;100097;-74
2023/08/03 10:33:58;;;;;;;5.80;1.45;;;;;;;;;;4910776;28;100692;-74
2023/08/03 10:36:27;;;;;;;4.60;1.35;;;;;;;;;;4927503;28;99881;-73
2023/08/03 10:38:54;;;;;;;4.22;1.58;;;;;;;;;;4926087;28;98920;-74
2023/08/03 10:41:21;;;;;;;4.47;1.50;;;;;;;;;;4926601;28;99857;-74
2023/08/03 10:44:06;;;;;;;3.15;0.82;;;;;;;;;;4916441;28;101259;-76
2023/08/03 10:46:34;;;;;;;1.75;0.80;;;;;;;;;;4921225;28;99836;-75
2023/08/03 10:49:27;;;;;;;2.53;0.85;;;;;;;;;;4918871;28;100791;-74
2023/08/03 10:52:13;;;;;;;2.45;0.65;;;;;;;;;;4922735;28;101733;-74
2023/08/03 10:54:39;;;;;;;2.08;1.08;;;;;;;;;;4916497;28;99863;-74
2023/08/03 10:57:07;;;;;;;3.65;1.00;;;;;;;;;;4914228;28;100946;-75
2023/08/03 10:59:36;;;;;;;5.82;1.50;;;;;;;;;;4922680;28;98884;-73
2023/08/03 11:02:14;;;;;;;1.80;1.10;;;;;;;;;;4920663;28;100679;-72
2023/08/03 11:04:41;;;;;;;3.75;1.50;;;;;;;;;;4922133;28;99303;-74
2023/08/03 11:07:08;;;;;;;4.47;1.42;;;;;;;;;;4924652;28;98666;-73
2023/08/03 11:09:35;;;;;;;5.53;1.30;;;;;;;;;;4919500;28;100931;-73
2023/08/03 11:12:03;;;;;;;3.38;1.40;;;;;;;;;;4921283;28;99950;-73
2023/08/03 11:14:29;;;;;;;1.27;0.80;;;;;;;;;;4921616;28;100178;-73
2023/08/03 11:16:55;;;;;;;5.07;1.50;;;;;;;;;;4926366;28;100398;-75
2023/08/03 11:19:22;;;;;;;4.50;1.50;;;;;;;;;;4926727;28;99086;-73
2023/08/03 11:21:49;;;;;;;5.25;1.40;;;;;;;;;;4926228;28;99302;-74
2023/08/03 11:24:15;;;;;;;1.08;0.73;;;;;;;;;;4926951;28;100153;-74
2023/08/03 11:26:42;;;;;;;1.60;0.98;;;;;;;;;;4929228;28;100031;-74
2023/08/03 11:29:10;;;;;;;1.00;0.88;;;;;;;;;;4915832;28;99345;-74
2023/08/03 11:31:38;;;;;;;1.02;0.90;;;;;;;;;;4908332;28;100031;-74
2023/08/03 11:34:05;;;;;;;2.63;0.93;;;;;;;;;;4925385;28;99157;-74
2023/08/03 11:36:31;;;;;;;1.67;0.90;;;;;;;;;;4926372;28;100511;-74
2023/08/03 11:38:58;;;;;;;6.95;1.25;;;;;;;;;;4911779;28;99963;-73
2023/08/03 11:41:24;;;;;;;4.00;1.25;;;;;;;;;;4920018;28;98932;-74
2023/08/03 11:43:54;;;;;;;3.20;0.90;;;;;;;;;;4929677;28;100241;-74
2023/08/03 11:46:25;;;;;;;2.63;1.20;;;;;;;;;;4929675;28;99123;-74
2023/08/03 11:48:55;;;;;;;1.55;0.68;;;;;;;;;;4932416;28;99029;-74
2023/08/03 11:51:29;;;;;;;3.42;0.88;;;;;;;;;;4929888;28;99255;-74
2023/08/03 11:53:55;;;;;;;1.40;0.80;;;;;;;;;;4930368;28;99225;-74
2023/08/03 11:56:22;;;;;;;2.35;0.90;;;;;;;;;;4929316;28;99687;-73
2023/08/03 11:59:10;;;;;;;7.00;1.50;;;;;;;;;;4929373;28;100284;-73
2023/08/03 12:01:46;;;;;;;1.48;1.13;;;;;;;;;;4930796;28;99819;-74
2023/08/03 12:04:14;;;;;;;6.53;1.30;;;;;;;;;;4929764;28;99132;-74
2023/08/03 12:06:51;;;;;;;3.20;1.10;;;;;;;;;;4930783;28;99913;-73
2023/08/03 12:09:22;;;;;;;2.33;0.80;;;;;;;;;;4930345;28;99943;-76
2023/08/03 12:11:48;;;;;;;0.70;0.60;;;;;;;;;;4932313;28;100113;-75
2023/08/03 12:14:16;;;;;;;2.80;0.70;;;;;;;;;;4929681;28;99472;-73
2023/08/03 12:16:42;;;;;;;1.95;0.75;;;;;;;;;;4930389;28;98140;-74
2023/08/03 12:19:09;;;;;;;1.08;0.63;;;;;;;;;;4928936;28;99886;-74
2023/08/03 12:21:38;;;;;;;2.38;0.73;;;;;;;;;;4929721;28;99900;-74
2023/08/03 12:24:05;;;;;;;0.82;0.80;;;;;;;;;;4928968;28;100370;-74
2023/08/03 12:26:35;;;;;;;2.55;0.82;;;;;;;;;;4928876;28;100509;-74
2023/08/03 12:29:03;;;;;;;1.20;0.75;;;;;;;;;;4929936;28;100000;-75
2023/08/03 12:31:34;;;;;;;1.75;0.75;;;;;;;;;;4929917;28;100908;-74
2023/08/03 12:34:00;;;;;;;5.00;2.47;;;;;;;;;;4932365;28;98840;-76
2023/08/03 12:36:27;;;;;;;1.00;0.60;;;;;;;;;;4929545;28;100598;-74
2023/08/03 12:38:53;;;;;;;1.50;0.80;;;;;;;;;;4928722;28;99034;-74
2023/08/03 12:41:20;;;;;;;1.40;0.88;;;;;;;;;;4927968;28;99074;-75
2023/08/03 12:43:47;;;;;;;0.80;0.68;;;;;;;;;;4913624;28;100409;-74
2023/08/03 12:46:13;;;;;;;2.70;0.60;;;;;;;;;;4923084;28;99236;-74
2023/08/03 12:48:40;;;;;;;1.30;0.70;;;;;;;;;;4918603;28;99383;-73
2023/08/03 12:51:07;;;;;;;1.60;0.70;;;;;;;;;;4919578;28;99234;-74
2023/08/03 12:53:34;;;;;;;1.15;0.75;;;;;;;;;;4919605;28;100107;-76
2023/08/03 12:56:01;;;;;;;1.10;1.00;;;;;;;;;;4925351;28;100581;-73
2023/08/03 12:58:27;;;;;;;1.40;0.77;;;;;;;;;;4922101;28;100323;-73
2023/08/03 13:00:57;;;;;;;1.60;0.90;;;;;;;;;;4920065;28;100127;-75
2023/08/03 13:03:23;;;;;;;0.95;0.90;;;;;;;;;;4920224;28;100069;-74
2023/08/03 13:05:50;;;;;;;1.15;0.80;;;;;;;;;;4919081;28;100687;-76
2023/08/03 13:08:18;;;;;;;1.40;0.90;;;;;;;;;;4919139;28;100306;-75
2023/08/03 13:10:45;;;;;;;2.40;1.00;;;;;;;;;;4922196;28;100669;-75
2023/08/03 13:13:12;;;;;;;1.08;0.80;;;;;;;;;;4921329;28;100779;-75
2023/08/03 13:15:39;;;;;;;0.77;0.77;;;;;;;;;;4924334;28;100742;-75
2023/08/03 13:18:05;;;;;;;1.27;0.63;;;;;;;;;;4920942;28;99968;-73
2023/08/03 13:20:32;;;;;;;4.57;0.88;;;;;;;;;;4927888;28;99039;-74
2023/08/03 13:22:59;;;;;;;2.63;1.13;;;;;;;;;;4924515;28;99426;-76
2023/08/03 13:25:26;;;;;;;4.50;1.30;;;;;;;;;;4922115;28;100179;-76
2023/08/03 13:27:52;;;;;;;3.60;0.93;;;;;;;;;;4923125;28;99378;-75
2023/08/03 13:30:20;;;;;;;1.70;0.90;;;;;;;;;;4923291;28;99518;-76
2023/08/03 13:32:46;;;;;;;3.40;1.58;;;;;;;;;;4921623;28;99028;-75
2023/08/03 13:35:13;;;;;;;5.20;1.77;;;;;;;;;;4920463;28;100262;-76
2023/08/03 13:37:40;;;;;;;1.00;0.88;;;;;;;;;;4921436;28;102049;-75
2023/08/03 13:40:08;;;;;;;3.15;1.05;;;;;;;;;;4923598;28;101103;-75
2023/08/03 13:42:35;;;;;;;3.72;1.17;;;;;;;;;;4920873;28;100511;-74
2023/08/03 13:45:01;;;;;;;1.75;0.95;;;;;;;;;;4923087;28;99844;-73
2023/08/03 13:47:28;;;;;;;1.88;1.15;;;;;;;;;;4923015;28;100481;-74
2023/08/03 13:49:55;;;;;;;3.60;0.70;;;;;;;;;;4921267;28;100329;-75
2023/08/03 13:52:21;;;;;;;1.92;0.90;;;;;;;;;;4921925;28;99396;-76
2023/08/03 13:54:47;;;;;;;0.90;0.75;;;;;;;;;;4921272;28;99417;-76
2023/08/03 13:57:15;;;;;;;1.02;0.95;;;;;;;;;;4919464;28;100403;-77
2023/08/03 14:00:00;;;;;;;4.70;1.10;;;;;;;;;;4920624;28;100196;-76
2023/08/03 14:02:31;;;;;;;5.53;1.10;;;;;;;;;;4918092;28;101465;-75
2023/08/03 14:05:01;;;;;;;4.05;0.93;;;;;;;;;;4924563;28;100032;-75
2023/08/03 14:07:28;;;;;;;3.65;0.80;;;;;;;;;;4920608;28;99950;-75
2023/08/03 14:10:00;;;;;;;1.75;0.80;;;;;;;;;;4921421;28;100175;-76
2023/08/03 14:12:30;;;;;;;3.67;1.35;;;;;;;;;;4919199;28;100185;-75
2023/08/03 14:14:59;;;;;;;1.63;1.08;;;;;;;;;;4917798;28;99858;-75
2023/08/03 14:17:45;;;;;;;1.08;1.02;;;;;;;;;;4922674;28;100139;-75
2023/08/03 14:20:16;;;;;;;3.72;1.15;;;;;;;;;;4921588;28;100120;-76
2023/08/03 14:22:46;;;;;;;2.67;1.10;;;;;;;;;;4925703;28;99824;-75
2023/08/03 14:25:15;;;;;;;2.45;1.15;;;;;;;;;;4921589;28;98956;-76
2023/08/03 14:27:44;;;;;;;;;;;;;;;;;;4920762;28;100384;-74
2023/08/03 14:30:15;;;;;;;1.92;1.10;;;;;;;;;;4915066;28;100436;-74
2023/08/03 14:32:45;;;;;;;3.90;1.58;;;;;;;;;;4919013;28;100192;-76
2023/08/03 14:35:12;;;;;;;3.97;1.23;;;;;;;;;;4922707;28;100418;-76
2023/08/03 14:37:41;;;;;;;1.33;1.08;;;;;;;;;;4921429;28;100818;-75
2023/08/03 14:40:08;;;;;;;8.02;2.08;;;;;;;;;;4914788;28;100291;-73